Time;durP1;ratioP1;P1;durP2;ratioP2;P2;SDS_P1;SDS_P2;PMS_P1;PMS_P2;Temp;Humidity;BMP_temperature;BMP_pressure;BME280_temperature;BME280_humidity;BME280_pressure;Samples;Min_cycle;Max_cycle;Signal;HPM_P1;HPM_P2
2022/08/14 00:01:14;;;;;;;9.75;6.68;;;;;;;;;;5038377;28;20021;-88
2022/08/14 00:03:40;;;;;;;11.18;7.22;;;;;;;;;;5056085;28;20029;-88
2022/08/14 00:06:06;;;;;;;10.98;6.97;;;;;;;;;;5054939;28;20503;-88
2022/08/14 00:08:32;;;;;;;10.13;6.70;;;;;;;;;;5037926;28;20021;-88
2022/08/14 00:10:58;;;;;;;10.48;6.68;;;;;;;;;;5038212;28;20028;-88
2022/08/14 00:13:28;;;;;;;9.75;6.53;;;;;;;;;;5055206;28;20501;-88
2022/08/14 00:15:55;;;;;;;11.55;7.00;;;;;;;;;;5036756;28;20048;-88
2022/08/14 00:18:22;;;;;;;10.50;6.57;;;;;;;;;;5059629;28;20083;-88
2022/08/14 00:20:49;;;;;;;10.77;7.60;;;;;;;;;;5047481;28;20296;-88
2022/08/14 00:23:15;;;;;;;9.90;6.93;;;;;;;;;;5056160;28;20017;-88
2022/08/14 00:25:42;;;;;;;10.10;6.85;;;;;;;;;;5055091;28;20055;-89
2022/08/14 00:28:10;;;;;;;10.75;7.05;;;;;;;;;;5056453;28;20025;-89
2022/08/14 00:30:36;;;;;;;10.05;6.82;;;;;;;;;;5071663;28;20052;-87
2022/08/14 00:33:03;;;;;;;10.27;7.00;;;;;;;;;;5070376;28;20076;-89
2022/08/14 00:35:30;;;;;;;11.07;6.88;;;;;;;;;;5054284;28;20029;-88
2022/08/14 00:37:56;;;;;;;11.68;7.30;;;;;;;;;;5054793;28;20028;-88
2022/08/14 00:40:22;;;;;;;9.60;7.40;;;;;;;;;;5066411;28;20083;-89
2022/08/14 00:42:48;;;;;;;10.63;6.80;;;;;;;;;;5054338;28;20029;-88
2022/08/14 00:45:15;;;;;;;13.70;7.35;;;;;;;;;;5052926;28;20024;-88
2022/08/14 00:47:42;;;;;;;9.10;6.18;;;;;;;;;;5055393;28;20045;-88
2022/08/14 00:50:09;;;;;;;9.80;6.80;;;;;;;;;;5037203;28;20017;-88
2022/08/14 00:52:35;;;;;;;11.48;7.10;;;;;;;;;;5037323;28;20439;-89
2022/08/14 00:55:02;;;;;;;10.65;7.20;;;;;;;;;;5059734;28;20071;-90
2022/08/14 00:57:30;;;;;;;9.77;6.88;;;;;;;;;;5077512;28;20025;-89
2022/08/14 00:59:56;;;;;;;10.55;7.13;;;;;;;;;;5040917;28;20085;-88
2022/08/14 01:02:23;;;;;;;9.65;7.03;;;;;;;;;;5037437;28;20427;-89
2022/08/14 01:04:50;;;;;;;11.50;7.15;;;;;;;;;;5050235;28;20021;-88
2022/08/14 01:07:19;;;;;;;10.65;7.38;;;;;;;;;;5054652;28;20025;-88
2022/08/14 01:09:47;;;;;;;10.23;6.68;;;;;;;;;;5016346;28;20029;-88
2022/08/14 01:12:14;;;;;;;9.93;7.60;;;;;;;;;;5016903;28;20025;-88
2022/08/14 01:14:40;;;;;;;11.60;6.78;;;;;;;;;;5044332;28;20067;-88
2022/08/14 01:17:06;;;;;;;10.25;7.15;;;;;;;;;;5052919;28;20021;-88
2022/08/14 01:22:17;;;;;;;10.48;6.57;;;;;;;;;;5054618;28;20044;-89
2022/08/14 01:24:43;;;;;;;10.05;6.88;;;;;;;;;;5051066;28;20033;-89
2022/08/14 01:27:20;;;;;;;9.98;6.97;;;;;;;;;;5062769;28;20018;-89
2022/08/14 01:29:47;;;;;;;9.57;6.40;;;;;;;;;;5069070;28;20055;-88
2022/08/14 01:32:13;;;;;;;10.15;7.30;;;;;;;;;;5053242;28;20443;-89
2022/08/14 01:34:39;;;;;;;10.73;6.85;;;;;;;;;;5055857;28;20032;-89
2022/08/14 01:37:06;;;;;;;9.77;6.70;;;;;;;;;;5062983;28;20025;-88
2022/08/14 01:39:32;;;;;;;10.40;6.78;;;;;;;;;;5034333;28;20040;-89
2022/08/14 01:41:59;;;;;;;9.30;6.65;;;;;;;;;;5036651;28;20028;-88
2022/08/14 01:44:29;;;;;;;9.63;6.80;;;;;;;;;;5035396;28;20074;-88
2022/08/14 01:46:57;;;;;;;9.30;6.63;;;;;;;;;;5034276;28;20043;-88
2022/08/14 01:49:24;;;;;;;9.60;6.80;;;;;;;;;;5034853;28;20087;-89
2022/08/14 01:51:55;;;;;;;8.98;6.90;;;;;;;;;;5037590;28;20067;-88
2022/08/14 01:54:22;;;;;;;10.63;7.00;;;;;;;;;;5051060;28;20097;-89
2022/08/14 01:56:50;;;;;;;10.82;7.05;;;;;;;;;;5051535;28;20020;-89
2022/08/14 01:59:19;;;;;;;9.85;6.43;;;;;;;;;;5050845;28;20534;-89
2022/08/14 02:01:46;;;;;;;11.02;7.40;;;;;;;;;;5033884;28;20027;-88
2022/08/14 02:04:13;;;;;;;11.63;7.60;;;;;;;;;;5034119;28;20028;-88
2022/08/14 02:06:39;;;;;;;9.82;6.55;;;;;;;;;;5052507;28;20079;-88
2022/08/14 02:09:05;;;;;;;10.55;7.40;;;;;;;;;;5052020;28;20403;-88
2022/08/14 02:11:33;;;;;;;10.77;7.00;;;;;;;;;;5051825;28;20023;-88
2022/08/14 02:14:03;;;;;;;12.48;7.22;;;;;;;;;;5034300;28;20024;-89
2022/08/14 02:16:32;;;;;;;10.60;7.70;;;;;;;;;;5050872;28;20150;-88
2022/08/14 02:19:00;;;;;;;11.18;7.00;;;;;;;;;;5034935;28;20029;-88
2022/08/14 02:21:27;;;;;;;9.45;6.90;;;;;;;;;;5033748;28;20027;-88
2022/08/14 02:23:54;;;;;;;9.80;7.05;;;;;;;;;;5052072;28;20087;-88
2022/08/14 02:26:22;;;;;;;9.57;6.78;;;;;;;;;;5032290;28;20017;-88
2022/08/14 02:28:49;;;;;;;10.25;6.68;;;;;;;;;;5050712;28;20056;-89
2022/08/14 02:31:16;;;;;;;9.20;6.68;;;;;;;;;;5050957;28;20045;-88
2022/08/14 02:33:42;;;;;;;9.50;7.18;;;;;;;;;;5033088;28;20040;-88
2022/08/14 02:36:09;;;;;;;11.35;7.10;;;;;;;;;;5033248;28;20017;-88
2022/08/14 02:38:35;;;;;;;8.98;6.55;;;;;;;;;;5033930;28;20017;-89
2022/08/14 02:41:02;;;;;;;9.98;7.53;;;;;;;;;;5033812;28;20045;-88
2022/08/14 02:43:29;;;;;;;11.43;7.55;;;;;;;;;;5034010;28;20086;-88
2022/08/14 02:45:55;;;;;;;8.68;6.45;;;;;;;;;;5031486;28;20536;-89
2022/08/14 02:48:21;;;;;;;9.95;7.50;;;;;;;;;;5033194;28;20029;-89
2022/08/14 02:50:48;;;;;;;10.85;7.20;;;;;;;;;;5051645;28;20041;-89
2022/08/14 02:53:14;;;;;;;11.07;7.22;;;;;;;;;;5048000;28;20504;-88
2022/08/14 02:55:40;;;;;;;10.18;7.00;;;;;;;;;;5049977;28;20048;-88
2022/08/14 02:58:07;;;;;;;10.10;6.85;;;;;;;;;;5033672;28;20028;-88
2022/08/14 03:00:34;;;;;;;10.18;6.93;;;;;;;;;;5033012;28;20021;-90
2022/08/14 03:03:01;;;;;;;10.48;6.80;;;;;;;;;;5032080;28;20463;-89
2022/08/14 03:05:29;;;;;;;9.65;7.57;;;;;;;;;;5033021;28;20479;-89
2022/08/14 03:08:03;;;;;;;10.30;7.40;;;;;;;;;;5051740;28;20052;-89
2022/08/14 03:10:29;;;;;;;10.27;6.82;;;;;;;;;;5034031;28;20074;-89
2022/08/14 03:12:56;;;;;;;9.70;6.72;;;;;;;;;;5033375;28;20029;-88
2022/08/14 03:15:22;;;;;;;10.32;6.82;;;;;;;;;;5032547;28;20067;-89
2022/08/14 03:17:51;;;;;;;9.98;7.50;;;;;;;;;;5032870;28;20071;-89
2022/08/14 03:20:17;;;;;;;10.32;6.88;;;;;;;;;;5032604;28;20035;-88
2022/08/14 03:22:43;;;;;;;9.85;7.13;;;;;;;;;;5049154;28;20117;-88
2022/08/14 03:25:11;;;;;;;8.90;6.47;;;;;;;;;;5050788;28;20029;-89
2022/08/14 03:27:37;;;;;;;9.55;6.80;;;;;;;;;;5036436;28;20509;-88
2022/08/14 03:30:03;;;;;;;9.77;6.88;;;;;;;;;;5036422;28;20029;-89
2022/08/14 03:32:32;;;;;;;10.55;7.30;;;;;;;;;;5054983;28;20025;-88
2022/08/14 03:34:58;;;;;;;10.63;6.85;;;;;;;;;;5036037;28;20086;-88
2022/08/14 03:37:25;;;;;;;10.45;6.85;;;;;;;;;;5054429;28;20025;-88
2022/08/14 03:39:52;;;;;;;8.68;7.00;;;;;;;;;;5054641;28;20128;-89
2022/08/14 03:42:18;;;;;;;10.40;7.35;;;;;;;;;;5036570;28;20024;-88
2022/08/14 03:44:44;;;;;;;10.15;7.30;;;;;;;;;;5055086;28;20044;-88
2022/08/14 03:47:10;;;;;;;9.70;7.05;;;;;;;;;;5037880;28;20017;-89
2022/08/14 03:49:39;;;;;;;9.23;7.03;;;;;;;;;;5037479;28;20029;-88
2022/08/14 03:52:05;;;;;;;9.18;7.03;;;;;;;;;;5052404;28;20013;-88
2022/08/14 03:54:34;;;;;;;10.00;7.10;;;;;;;;;;5036460;28;20071;-88
2022/08/14 03:57:00;;;;;;;9.88;7.22;;;;;;;;;;5033730;28;20021;-88
2022/08/14 03:59:26;;;;;;;9.32;6.93;;;;;;;;;;5052332;28;20487;-88
2022/08/14 04:01:52;;;;;;;10.20;7.13;;;;;;;;;;5055422;28;20491;-88
2022/08/14 04:04:18;;;;;;;9.30;6.85;;;;;;;;;;5036431;28;20021;-88
2022/08/14 04:06:45;;;;;;;10.98;7.63;;;;;;;;;;5051319;28;20037;-88
2022/08/14 04:09:11;;;;;;;10.98;8.07;;;;;;;;;;5053388;28;20044;-88
2022/08/14 04:11:37;;;;;;;10.73;7.18;;;;;;;;;;5077375;28;20078;-88
2022/08/14 04:14:04;;;;;;;10.13;7.50;;;;;;;;;;5061255;28;20024;-89
2022/08/14 04:16:30;;;;;;;9.77;7.35;;;;;;;;;;5041642;28;20031;-88
2022/08/14 04:18:58;;;;;;;9.38;6.70;;;;;;;;;;5054290;28;20035;-88
2022/08/14 04:21:28;;;;;;;10.38;7.28;;;;;;;;;;5055390;28;20087;-88
2022/08/14 04:23:54;;;;;;;10.27;7.20;;;;;;;;;;5036490;28;20017;-88
2022/08/14 04:26:21;;;;;;;12.68;7.97;;;;;;;;;;5052200;28;20017;-87
2022/08/14 04:28:48;;;;;;;10.27;7.68;;;;;;;;;;5053062;28;20387;-88
2022/08/14 04:31:14;;;;;;;11.18;8.00;;;;;;;;;;5053965;28;20009;-88
2022/08/14 04:33:41;;;;;;;9.10;6.90;;;;;;;;;;5035975;28;20103;-88
2022/08/14 04:36:07;;;;;;;10.05;7.53;;;;;;;;;;5051802;28;20021;-88
2022/08/14 04:44:03;;;;;;;11.10;8.57;;;;;;;;;;5053068;28;20040;-88
2022/08/14 04:46:30;;;;;;;10.05;7.22;;;;;;;;;;5035679;28;20029;-87
2022/08/14 04:48:56;;;;;;;10.15;7.60;;;;;;;;;;5035572;28;20036;-88
2022/08/14 04:51:26;;;;;;;10.35;8.05;;;;;;;;;;5036723;28;20029;-88
2022/08/14 04:53:53;;;;;;;11.00;7.85;;;;;;;;;;5036322;28;20032;-88
2022/08/14 04:56:21;;;;;;;10.43;7.95;;;;;;;;;;5031109;28;20017;-88
2022/08/14 04:58:48;;;;;;;10.73;8.50;;;;;;;;;;5043399;28;20032;-88
2022/08/14 05:01:15;;;;;;;12.15;8.52;;;;;;;;;;5048732;28;20021;-88
2022/08/14 05:03:42;;;;;;;12.98;8.25;;;;;;;;;;5030758;28;20044;-88
2022/08/14 05:06:09;;;;;;;11.40;8.50;;;;;;;;;;5049185;28;20091;-88
2022/08/14 05:08:36;;;;;;;11.25;8.00;;;;;;;;;;5033648;28;20029;-88
2022/08/14 05:11:03;;;;;;;10.88;8.25;;;;;;;;;;5053634;28;20025;-88
2022/08/14 05:13:31;;;;;;;12.45;9.02;;;;;;;;;;5052378;28;20521;-88
2022/08/14 05:15:58;;;;;;;11.45;8.50;;;;;;;;;;5031261;28;20025;-88
2022/08/14 05:18:25;;;;;;;11.65;8.50;;;;;;;;;;5049745;28;20032;-87
2022/08/14 05:20:53;;;;;;;12.68;8.60;;;;;;;;;;5029092;28;20013;-88
2022/08/14 05:23:21;;;;;;;11.65;8.88;;;;;;;;;;5050038;28;20040;-88
2022/08/14 05:25:50;;;;;;;11.63;8.77;;;;;;;;;;5033127;28;20065;-88
2022/08/14 05:28:20;;;;;;;11.50;8.68;;;;;;;;;;5052627;28;20017;-88
2022/08/14 05:30:50;;;;;;;11.68;8.77;;;;;;;;;;5051798;28;20475;-87
2022/08/14 05:33:17;;;;;;;10.95;8.38;;;;;;;;;;5033027;28;20060;-86
2022/08/14 05:35:46;;;;;;;12.73;8.75;;;;;;;;;;5049710;28;20091;-86
2022/08/14 05:38:15;;;;;;;11.57;8.73;;;;;;;;;;5035005;28;20032;-87
2022/08/14 05:40:42;;;;;;;11.13;8.20;;;;;;;;;;5039274;28;20047;-87
2022/08/14 05:43:09;;;;;;;12.48;8.90;;;;;;;;;;5032995;28;20021;-88
2022/08/14 05:45:35;;;;;;;11.40;8.68;;;;;;;;;;5049363;28;20052;-88
2022/08/14 05:48:05;;;;;;;13.57;9.52;;;;;;;;;;5034498;28;20048;-88
2022/08/14 05:50:32;;;;;;;12.95;9.63;;;;;;;;;;5031881;28;20029;-88
2022/08/14 05:52:58;;;;;;;12.15;9.40;;;;;;;;;;5051361;28;20021;-88
2022/08/14 05:55:24;;;;;;;12.27;9.50;;;;;;;;;;5047719;28;20052;-88
2022/08/14 05:57:52;;;;;;;13.07;10.10;;;;;;;;;;5038485;28;20021;-88
2022/08/14 06:00:19;;;;;;;12.68;9.57;;;;;;;;;;5049336;28;20017;-88
2022/08/14 06:02:45;;;;;;;13.63;9.85;;;;;;;;;;5030350;28;20033;-88
2022/08/14 06:05:11;;;;;;;13.73;9.32;;;;;;;;;;5032879;28;20033;-88
2022/08/14 06:07:37;;;;;;;12.57;9.27;;;;;;;;;;5029161;28;20033;-88
2022/08/14 06:10:05;;;;;;;13.15;9.73;;;;;;;;;;5033399;28;20480;-87
2022/08/14 06:12:31;;;;;;;13.02;10.30;;;;;;;;;;5034214;28;20021;-88
2022/08/14 06:14:58;;;;;;;13.63;10.65;;;;;;;;;;5051613;28;20051;-88
2022/08/14 06:17:24;;;;;;;12.85;9.93;;;;;;;;;;5032814;28;20025;-87
2022/08/14 06:19:50;;;;;;;13.57;9.68;;;;;;;;;;5052243;28;20060;-89
2022/08/14 06:22:16;;;;;;;12.73;9.82;;;;;;;;;;5033457;28;20036;-88
2022/08/14 06:24:42;;;;;;;13.13;9.57;;;;;;;;;;5032513;28;20036;-89
2022/08/14 06:27:08;;;;;;;13.88;10.05;;;;;;;;;;5030011;28;20028;-88
2022/08/14 06:29:35;;;;;;;13.45;9.52;;;;;;;;;;5048314;28;20021;-89
2022/08/14 06:32:01;;;;;;;13.30;10.02;;;;;;;;;;5049816;28;20043;-88
2022/08/14 06:34:27;;;;;;;13.30;9.25;;;;;;;;;;5040221;28;20032;-88
2022/08/14 06:36:55;;;;;;;12.20;8.75;;;;;;;;;;5050984;28;20104;-88
2022/08/14 06:39:21;;;;;;;11.35;9.50;;;;;;;;;;5032267;28;20074;-88
2022/08/14 06:41:47;;;;;;;12.00;9.52;;;;;;;;;;5032313;28;20044;-88
2022/08/14 06:44:13;;;;;;;11.50;8.77;;;;;;;;;;5031610;28;20033;-88
2022/08/14 06:46:39;;;;;;;12.85;9.27;;;;;;;;;;5047707;28;20029;-88
2022/08/14 06:49:06;;;;;;;10.70;8.85;;;;;;;;;;5040966;28;20021;-87
2022/08/14 06:51:32;;;;;;;11.02;8.70;;;;;;;;;;5050037;28;20028;-88
2022/08/14 06:53:58;;;;;;;13.00;9.45;;;;;;;;;;5032284;28;20025;-88
2022/08/14 06:56:24;;;;;;;12.68;9.52;;;;;;;;;;5032477;28;20028;-88
2022/08/14 06:58:50;;;;;;;12.85;9.60;;;;;;;;;;5032591;28;20051;-88
2022/08/14 07:06:45;;;;;;;12.18;9.68;;;;;;;;;;5039067;28;20091;-89
2022/08/14 07:09:11;;;;;;;12.35;9.57;;;;;;;;;;5056331;28;20033;-88
2022/08/14 07:14:41;;;;;;;12.13;9.40;;;;;;;;;;5056181;28;20032;-87
2022/08/14 07:20:10;;;;;;;11.65;9.32;;;;;;;;;;5052736;28;20107;-89
2022/08/14 07:22:36;;;;;;;11.40;8.60;;;;;;;;;;5068616;28;20025;-88
2022/08/14 07:25:03;;;;;;;11.70;9.05;;;;;;;;;;5052014;28;20182;-88
2022/08/14 07:27:29;;;;;;;11.55;9.25;;;;;;;;;;5048082;28;20257;-88
2022/08/14 07:29:55;;;;;;;13.00;9.13;;;;;;;;;;5050666;28;20514;-89
2022/08/14 07:32:21;;;;;;;11.93;9.13;;;;;;;;;;5055691;28;20056;-87
2022/08/14 07:34:47;;;;;;;12.52;10.00;;;;;;;;;;5033046;28;20475;-87
2022/08/14 07:37:13;;;;;;;11.85;8.98;;;;;;;;;;5036431;28;20025;-87
2022/08/14 07:39:39;;;;;;;12.38;9.05;;;;;;;;;;5036643;28;20411;-88
2022/08/14 07:42:06;;;;;;;12.40;9.68;;;;;;;;;;5035942;28;20510;-87
2022/08/14 07:44:33;;;;;;;12.80;10.40;;;;;;;;;;5049536;28;20049;-87
2022/08/14 07:46:59;;;;;;;12.52;9.10;;;;;;;;;;5022846;28;20200;-87
2022/08/14 07:49:25;;;;;;;12.10;8.95;;;;;;;;;;5051696;28;20056;-87
2022/08/14 07:51:51;;;;;;;12.43;9.35;;;;;;;;;;5038028;28;20021;-87
2022/08/14 07:54:17;;;;;;;11.88;9.43;;;;;;;;;;5036646;28;20048;-87
2022/08/14 07:56:44;;;;;;;13.13;9.18;;;;;;;;;;5037394;28;20036;-87
2022/08/14 07:59:10;;;;;;;12.00;9.48;;;;;;;;;;5054919;28;20020;-87
2022/08/14 08:01:36;;;;;;;11.75;9.40;;;;;;;;;;5032080;28;20025;-88
2022/08/14 08:04:03;;;;;;;11.75;9.38;;;;;;;;;;5052089;28;20059;-87
2022/08/14 08:06:29;;;;;;;11.70;9.25;;;;;;;;;;5030826;28;20025;-87
2022/08/14 08:08:57;;;;;;;13.10;9.40;;;;;;;;;;5035342;28;20029;-87
2022/08/14 08:11:24;;;;;;;10.93;8.27;;;;;;;;;;5045334;28;20048;-87
2022/08/14 08:13:50;;;;;;;11.95;9.27;;;;;;;;;;5035911;28;20021;-87
2022/08/14 08:16:22;;;;;;;10.90;8.75;;;;;;;;;;5053510;28;20040;-88
2022/08/14 08:18:49;;;;;;;10.48;8.70;;;;;;;;;;5053676;28;20028;-88
2022/08/14 08:21:15;;;;;;;13.02;9.25;;;;;;;;;;5053586;28;20033;-87
2022/08/14 08:23:42;;;;;;;11.82;9.00;;;;;;;;;;5036012;28;20401;-88
2022/08/14 08:26:08;;;;;;;12.43;8.82;;;;;;;;;;5034367;28;20044;-88
2022/08/14 08:28:34;;;;;;;13.25;9.25;;;;;;;;;;5050657;28;20033;-88
2022/08/14 08:31:01;;;;;;;12.07;9.50;;;;;;;;;;5052719;28;20471;-88
2022/08/14 08:33:29;;;;;;;11.80;8.88;;;;;;;;;;5046191;28;20494;-88
2022/08/14 08:35:59;;;;;;;13.13;9.90;;;;;;;;;;5036949;28;20025;-88
2022/08/14 08:38:26;;;;;;;11.50;9.70;;;;;;;;;;5052507;28;20108;-85
2022/08/14 08:40:55;;;;;;;11.75;8.80;;;;;;;;;;5053568;28;20066;-88
2022/08/14 08:43:22;;;;;;;11.65;8.90;;;;;;;;;;5050526;28;20068;-88
2022/08/14 08:46:15;;;;;;;12.93;9.50;;;;;;;;;;5034590;28;20025;-88
2022/08/14 08:48:50;;;;;;;11.90;9.38;;;;;;;;;;5042874;28;20406;-88
2022/08/14 08:51:23;;;;;;;13.60;9.23;;;;;;;;;;5037185;28;20049;-89
2022/08/14 08:54:00;;;;;;;12.82;9.27;;;;;;;;;;5051116;28;20025;-87
2022/08/14 08:56:40;;;;;;;11.60;9.32;;;;;;;;;;5035831;28;20023;-89
2022/08/14 08:59:16;;;;;;;11.60;9.50;;;;;;;;;;5037240;28;20031;-88
2022/08/14 09:01:46;;;;;;;12.75;9.93;;;;;;;;;;5032844;28;20082;-89
2022/08/14 09:04:13;;;;;;;13.95;9.70;;;;;;;;;;5037169;28;20120;-88
2022/08/14 09:06:43;;;;;;;11.38;8.65;;;;;;;;;;5035159;28;20119;-88
2022/08/14 09:09:29;;;;;;;12.05;9.85;;;;;;;;;;5035442;28;20034;-88
2022/08/14 09:11:56;;;;;;;11.60;9.55;;;;;;;;;;5053271;28;20048;-86
2022/08/14 09:14:23;;;;;;;13.32;9.98;;;;;;;;;;5041295;28;20040;-88
2022/08/14 09:16:51;;;;;;;13.43;10.15;;;;;;;;;;5036303;28;20029;-87
2022/08/14 09:19:18;;;;;;;12.57;9.50;;;;;;;;;;5034308;28;20025;-88
2022/08/14 09:21:45;;;;;;;12.98;10.05;;;;;;;;;;5035382;28;20033;-88
2022/08/14 09:24:12;;;;;;;11.70;9.20;;;;;;;;;;5056249;28;20029;-86
2022/08/14 09:26:38;;;;;;;11.75;9.07;;;;;;;;;;5042206;28;20036;-86
2022/08/14 09:29:05;;;;;;;10.82;8.82;;;;;;;;;;5040614;28;20033;-87
2022/08/14 09:31:33;;;;;;;12.82;9.02;;;;;;;;;;5058089;28;20047;-88
2022/08/14 09:34:05;;;;;;;11.95;9.57;;;;;;;;;;5058059;28;20025;-86
2022/08/14 09:36:50;;;;;;;12.75;9.63;;;;;;;;;;5041396;28;20045;-86
2022/08/14 09:39:20;;;;;;;11.40;9.07;;;;;;;;;;5035850;28;20441;-87
2022/08/14 09:42:03;;;;;;;10.77;8.80;;;;;;;;;;5034691;28;20087;-87
2022/08/14 09:44:42;;;;;;;12.15;9.35;;;;;;;;;;5036044;28;20029;-87
2022/08/14 09:47:09;;;;;;;10.95;9.30;;;;;;;;;;5053902;28;20052;-87
2022/08/14 09:49:36;;;;;;;10.35;8.95;;;;;;;;;;5034882;28;20028;-89
2022/08/14 09:52:06;;;;;;;12.20;8.80;;;;;;;;;;5032929;28;20105;-87
2022/08/14 09:54:43;;;;;;;10.85;8.70;;;;;;;;;;5037475;28;20402;-87
2022/08/14 09:57:10;;;;;;;12.90;9.55;;;;;;;;;;5051381;28;20037;-86
2022/08/14 09:59:40;;;;;;;10.77;8.52;;;;;;;;;;5035863;28;20103;-88
2022/08/14 10:02:28;;;;;;;10.85;8.32;;;;;;;;;;5056839;28;20040;-89
2022/08/14 10:05:05;;;;;;;11.77;8.68;;;;;;;;;;5035556;28;20116;-88
2022/08/14 10:07:32;;;;;;;11.10;9.23;;;;;;;;;;5034242;28;20519;-88
2022/08/14 10:09:59;;;;;;;11.32;9.32;;;;;;;;;;5044225;28;20041;-89
2022/08/14 10:12:26;;;;;;;10.75;9.02;;;;;;;;;;5054209;28;20024;-88
2022/08/14 10:14:52;;;;;;;12.65;9.60;;;;;;;;;;5054953;28;20443;-88
2022/08/14 10:17:25;;;;;;;11.75;8.77;;;;;;;;;;5037071;28;20060;-88
2022/08/14 10:19:52;;;;;;;12.48;9.25;;;;;;;;;;5033974;28;20096;-89
2022/08/14 10:22:27;;;;;;;10.48;8.50;;;;;;;;;;5031247;28;20029;-88
2022/08/14 10:24:53;;;;;;;11.68;9.48;;;;;;;;;;5019201;28;20075;-87
2022/08/14 10:27:24;;;;;;;11.02;8.68;;;;;;;;;;5032864;28;20025;-88
2022/08/14 10:30:03;;;;;;;11.00;8.85;;;;;;;;;;5023132;28;20489;-88
2022/08/14 10:32:29;;;;;;;12.55;9.40;;;;;;;;;;5034137;28;20111;-88
2022/08/14 10:35:06;;;;;;;12.13;9.05;;;;;;;;;;5032769;28;20025;-88
2022/08/14 10:37:47;;;;;;;10.18;8.25;;;;;;;;;;5049724;28;20059;-87
2022/08/14 10:40:14;;;;;;;11.13;8.98;;;;;;;;;;5026627;28;20033;-91
2022/08/14 10:42:42;;;;;;;11.98;9.68;;;;;;;;;;5054974;28;20013;-90
2022/08/14 10:45:21;;;;;;;10.77;8.90;;;;;;;;;;5061137;28;20037;-89
2022/08/14 10:47:48;;;;;;;11.60;9.18;;;;;;;;;;5036474;28;20079;-89
2022/08/14 10:50:15;;;;;;;10.80;9.07;;;;;;;;;;5038223;28;20107;-87
2022/08/14 10:52:41;;;;;;;11.57;8.45;;;;;;;;;;5063287;28;20029;-90
2022/08/14 10:55:12;;;;;;;11.90;9.10;;;;;;;;;;5037580;28;20021;-90
2022/08/14 10:57:58;;;;;;;12.48;9.63;;;;;;;;;;5038886;28;20020;-88
2022/08/14 11:00:27;;;;;;;11.27;9.05;;;;;;;;;;5042511;28;20032;-88
2022/08/14 11:03:00;;;;;;;11.57;8.85;;;;;;;;;;5039636;28;20017;-90
2022/08/14 11:05:26;;;;;;;11.32;8.85;;;;;;;;;;5061072;28;20029;-88
2022/08/14 11:07:55;;;;;;;11.50;9.23;;;;;;;;;;5031914;28;20021;-88
2022/08/14 11:10:26;;;;;;;11.40;9.65;;;;;;;;;;5057263;28;20021;-88
2022/08/14 11:12:55;;;;;;;10.75;8.40;;;;;;;;;;5037767;28;20021;-88
2022/08/14 11:15:22;;;;;;;12.15;9.43;;;;;;;;;;5036810;28;20025;-87
2022/08/14 11:17:50;;;;;;;11.23;8.70;;;;;;;;;;5038296;28;20052;-88
2022/08/14 11:20:17;;;;;;;10.95;8.82;;;;;;;;;;5056044;28;20075;-87
2022/08/14 11:22:43;;;;;;;11.95;9.45;;;;;;;;;;5058981;28;20061;-86
2022/08/14 11:25:12;;;;;;;11.00;9.10;;;;;;;;;;5041651;28;20033;-88
2022/08/14 11:27:39;;;;;;;11.27;8.80;;;;;;;;;;5030276;28;20044;-87
2022/08/14 11:30:06;;;;;;;11.30;8.40;;;;;;;;;;5026242;28;20105;-87
2022/08/14 11:32:33;;;;;;;11.20;8.90;;;;;;;;;;5030183;28;20040;-88
2022/08/14 11:35:02;;;;;;;11.27;8.15;;;;;;;;;;5054951;28;20021;-88
2022/08/14 11:37:32;;;;;;;10.52;8.35;;;;;;;;;;5032018;28;20032;-88
2022/08/14 11:39:58;;;;;;;11.07;8.48;;;;;;;;;;5057583;28;20062;-88
2022/08/14 11:42:25;;;;;;;10.75;8.82;;;;;;;;;;5039075;28;20090;-87
2022/08/14 11:44:53;;;;;;;11.35;7.88;;;;;;;;;;5058366;28;20024;-86
2022/08/14 11:47:19;;;;;;;11.18;8.82;;;;;;;;;;5047583;28;20529;-86
2022/08/14 11:49:46;;;;;;;12.10;8.63;;;;;;;;;;5049341;28;20025;-86
2022/08/14 11:52:14;;;;;;;10.80;8.70;;;;;;;;;;5051190;28;20009;-88
2022/08/14 11:54:40;;;;;;;10.98;9.32;;;;;;;;;;5067608;28;20100;-88
2022/08/14 11:57:13;;;;;;;10.50;8.43;;;;;;;;;;5061829;28;20029;-87
2022/08/14 11:59:39;;;;;;;10.25;8.10;;;;;;;;;;5039717;28;20033;-87
2022/08/14 12:02:10;;;;;;;10.90;8.73;;;;;;;;;;5039813;28;20379;-88
2022/08/14 12:04:36;;;;;;;11.60;8.43;;;;;;;;;;5054097;28;20027;-87
2022/08/14 12:07:06;;;;;;;11.52;8.90;;;;;;;;;;5053585;28;20060;-88
2022/08/14 12:09:33;;;;;;;9.32;7.82;;;;;;;;;;5052838;28;20044;-87
2022/08/14 12:12:01;;;;;;;10.85;8.85;;;;;;;;;;5047070;28;20135;-88
2022/08/14 12:14:27;;;;;;;9.63;8.10;;;;;;;;;;5035142;28;20395;-88
2022/08/14 12:17:00;;;;;;;10.50;9.18;;;;;;;;;;5036818;28;20090;-88
2022/08/14 12:19:26;;;;;;;10.82;8.85;;;;;;;;;;5035535;28;20521;-87
2022/08/14 12:21:53;;;;;;;11.65;8.75;;;;;;;;;;5048613;28;20017;-87
2022/08/14 12:24:26;;;;;;;10.57;8.63;;;;;;;;;;5030981;28;20572;-87
2022/08/14 12:26:56;;;;;;;11.50;7.80;;;;;;;;;;5050445;28;20021;-87
2022/08/14 12:29:22;;;;;;;11.40;8.13;;;;;;;;;;5028857;28;20684;-88
2022/08/14 12:31:57;;;;;;;11.18;8.68;;;;;;;;;;5044849;28;20028;-86
2022/08/14 12:34:30;;;;;;;10.40;8.52;;;;;;;;;;5024299;28;20037;-87
2022/08/14 12:37:06;;;;;;;10.80;8.25;;;;;;;;;;5054074;28;20060;-87
2022/08/14 12:39:32;;;;;;;10.15;8.02;;;;;;;;;;5041995;28;20064;-86
2022/08/14 12:42:05;;;;;;;10.57;8.20;;;;;;;;;;5058651;28;20041;-87
2022/08/14 12:44:43;;;;;;;10.85;8.60;;;;;;;;;;5031168;28;20036;-87
2022/08/14 12:47:11;;;;;;;11.25;8.32;;;;;;;;;;5037960;28;20021;-87
2022/08/14 12:49:37;;;;;;;8.90;7.70;;;;;;;;;;5058201;28;20047;-87
2022/08/14 12:52:06;;;;;;;10.77;8.50;;;;;;;;;;5036350;28;20033;-87
2022/08/14 12:54:33;;;;;;;10.50;8.50;;;;;;;;;;5053526;28;20368;-88
2022/08/14 12:57:03;;;;;;;10.55;8.00;;;;;;;;;;5038070;28;20021;-86
2022/08/14 12:59:33;;;;;;;10.85;7.65;;;;;;;;;;5031739;28;20031;-88
2022/08/14 13:02:00;;;;;;;10.80;8.38;;;;;;;;;;5034731;28;20555;-87
2022/08/14 13:04:35;;;;;;;10.25;7.85;;;;;;;;;;5052831;28;20025;-88
2022/08/14 13:07:07;;;;;;;10.48;8.05;;;;;;;;;;5021024;28;20041;-87
2022/08/14 13:09:33;;;;;;;10.50;7.43;;;;;;;;;;5046611;28;20134;-88
2022/08/14 13:12:01;;;;;;;9.38;7.32;;;;;;;;;;5052228;28;20033;-88
2022/08/14 13:14:29;;;;;;;11.82;8.40;;;;;;;;;;5034813;28;20505;-89
2022/08/14 13:16:56;;;;;;;11.02;7.78;;;;;;;;;;5052511;28;20479;-87
2022/08/14 13:19:23;;;;;;;10.80;8.20;;;;;;;;;;5035706;28;20459;-88
2022/08/14 13:21:55;;;;;;;10.13;8.02;;;;;;;;;;5052193;27;1348101;-86
2022/08/14 13:24:22;;;;;;;11.63;8.20;;;;;;;;;;5088356;28;20028;-87
2022/08/14 13:26:50;;;;;;;10.98;7.88;;;;;;;;;;5086894;28;20036;-86
2022/08/14 13:29:20;;;;;;;9.23;7.57;;;;;;;;;;5081625;28;20486;-86
2022/08/14 13:31:50;;;;;;;9.30;7.45;;;;;;;;;;5090211;28;20046;-88
2022/08/14 13:34:17;;;;;;;10.57;7.30;;;;;;;;;;5075779;28;20047;-88
2022/08/14 13:36:43;;;;;;;11.30;8.00;;;;;;;;;;5088446;28;20459;-87
2022/08/14 13:39:09;;;;;;;9.15;7.50;;;;;;;;;;5084859;28;20067;-89
2022/08/14 13:41:36;;;;;;;8.98;6.80;;;;;;;;;;5080251;28;20442;-88
2022/08/14 13:44:02;;;;;;;9.75;7.50;;;;;;;;;;5086848;28;20355;-87
2022/08/14 13:46:29;;;;;;;9.93;8.13;;;;;;;;;;5082694;28;20055;-86
2022/08/14 13:48:55;;;;;;;9.40;7.30;;;;;;;;;;5086658;28;20024;-86
2022/08/14 13:51:24;;;;;;;10.18;7.30;;;;;;;;;;5085538;28;20478;-87
2022/08/14 13:53:50;;;;;;;9.10;7.78;;;;;;;;;;5086827;28;20032;-90
2022/08/14 13:56:16;;;;;;;9.93;7.55;;;;;;;;;;5107280;28;20028;-87
2022/08/14 13:58:43;;;;;;;10.18;7.50;;;;;;;;;;5111732;28;20074;-88
2022/08/14 14:01:12;;;;;;;9.60;7.13;;;;;;;;;;5085257;28;20060;-87
2022/08/14 14:03:39;;;;;;;8.93;7.30;;;;;;;;;;5067352;28;20059;-89
2022/08/14 14:06:05;;;;;;;11.00;7.07;;;;;;;;;;5079145;28;20048;-88
2022/08/14 14:08:36;;;;;;;8.35;6.88;;;;;;;;;;5086793;28;20030;-89
2022/08/14 14:11:02;;;;;;;9.68;7.60;;;;;;;;;;5088020;28;20451;-88
2022/08/14 14:13:29;;;;;;;9.80;7.30;;;;;;;;;;5088803;28;20029;-88
2022/08/14 14:15:55;;;;;;;10.05;7.55;;;;;;;;;;5088242;28;20028;-88
2022/08/14 14:18:26;;;;;;;9.65;6.63;;;;;;;;;;5087088;28;20032;-88
2022/08/14 14:20:53;;;;;;;8.85;6.55;;;;;;;;;;5085712;28;20048;-88
2022/08/14 14:23:19;;;;;;;9.30;6.65;;;;;;;;;;5086664;28;20024;-89
2022/08/14 14:25:45;;;;;;;7.95;6.60;;;;;;;;;;5087192;28;20028;-88
2022/08/14 14:28:15;;;;;;;9.07;7.22;;;;;;;;;;5086425;28;20141;-87
2022/08/14 14:30:45;;;;;;;8.77;6.90;;;;;;;;;;5086759;28;20401;-87
2022/08/14 14:33:13;;;;;;;8.35;6.72;;;;;;;;;;5069305;28;20029;-87
2022/08/14 14:35:43;;;;;;;9.02;6.78;;;;;;;;;;5057707;28;20021;-86
2022/08/14 14:38:12;;;;;;;9.35;7.18;;;;;;;;;;5059178;28;20111;-88
2022/08/14 14:40:38;;;;;;;8.75;6.78;;;;;;;;;;5071731;28;20498;-89
2022/08/14 14:43:07;;;;;;;9.30;7.28;;;;;;;;;;5073162;28;20423;-88
2022/08/14 14:45:34;;;;;;;9.75;7.05;;;;;;;;;;5074568;28;20036;-86
2022/08/14 14:48:00;;;;;;;9.68;6.68;;;;;;;;;;5076528;28;20024;-87
2022/08/14 14:50:26;;;;;;;9.15;6.63;;;;;;;;;;5076184;28;20059;-86
2022/08/14 14:52:52;;;;;;;8.93;6.63;;;;;;;;;;5074440;28;20088;-87
2022/08/14 14:55:19;;;;;;;9.07;7.18;;;;;;;;;;5074490;28;20067;-85
2022/08/14 14:57:45;;;;;;;8.48;6.75;;;;;;;;;;5063907;28;20025;-87